sensor_id;sensor_type;location;lat;lon;timestamp;P1;durP1;ratioP1;P2;durP2;ratioP2
68995;SDS011;56056;48.990;12.146;2024-03-06T00:02:19;1999.90;;;999.90;;
68995;SDS011;56056;48.990;12.146;2024-03-06T00:04:45;1999.90;;;999.90;;
68995;SDS011;56056;48.990;12.146;2024-03-06T00:07:11;1999.90;;;999.90;;
68995;SDS011;56056;48.990;12.146;2024-03-06T00:09:37;1999.90;;;999.90;;
68995;SDS011;56056;48.990;12.146;2024-03-06T00:12:03;1999.90;;;999.90;;
68995;SDS011;56056;48.990;12.146;2024-03-06T00:14:31;1999.90;;;999.90;;
68995;SDS011;56056;48.990;12.146;2024-03-06T00:16:57;1999.90;;;999.90;;
68995;SDS011;56056;48.990;12.146;2024-03-06T00:19:24;1999.90;;;999.90;;
68995;SDS011;56056;48.990;12.146;2024-03-06T00:21:50;1999.90;;;999.90;;
68995;SDS011;56056;48.990;12.146;2024-03-06T00:24:16;1999.90;;;999.90;;
68995;SDS011;56056;48.990;12.146;2024-03-06T00:26:42;1999.90;;;999.90;;
68995;SDS011;56056;48.990;12.146;2024-03-06T00:29:09;1999.90;;;999.90;;
68995;SDS011;56056;48.990;12.146;2024-03-06T00:31:35;1999.90;;;999.90;;
68995;SDS011;56056;48.990;12.146;2024-03-06T00:34:02;1999.90;;;999.90;;
68995;SDS011;56056;48.990;12.146;2024-03-06T00:36:29;1999.90;;;999.90;;
68995;SDS011;56056;48.990;12.146;2024-03-06T00:38:55;1999.90;;;999.90;;
68995;SDS011;56056;48.990;12.146;2024-03-06T00:41:21;1999.90;;;999.90;;
68995;SDS011;56056;48.990;12.146;2024-03-06T00:43:48;1999.90;;;999.90;;
68995;SDS011;56056;48.990;12.146;2024-03-06T00:46:14;1999.90;;;999.90;;
68995;SDS011;56056;48.990;12.146;2024-03-06T00:48:40;1999.90;;;999.90;;
68995;SDS011;56056;48.990;12.146;2024-03-06T00:51:06;1999.90;;;999.90;;
68995;SDS011;56056;48.990;12.146;2024-03-06T00:53:33;1999.90;;;999.90;;
68995;SDS011;56056;48.990;12.146;2024-03-06T00:56:00;1999.90;;;999.90;;
68995;SDS011;56056;48.990;12.146;2024-03-06T00:58:26;1999.90;;;999.90;;
68995;SDS011;56056;48.990;12.146;2024-03-06T01:00:52;1999.90;;;999.90;;
68995;SDS011;56056;48.990;12.146;2024-03-06T01:03:18;1999.90;;;999.90;;
68995;SDS011;56056;48.990;12.146;2024-03-06T01:05:44;1999.90;;;999.90;;
68995;SDS011;56056;48.990;12.146;2024-03-06T01:08:10;1999.90;;;999.90;;
68995;SDS011;56056;48.990;12.146;2024-03-06T01:10:37;1999.90;;;999.90;;
68995;SDS011;56056;48.990;12.146;2024-03-06T01:13:03;1999.90;;;999.90;;
68995;SDS011;56056;48.990;12.146;2024-03-06T01:15:29;1999.90;;;999.90;;
68995;SDS011;56056;48.990;12.146;2024-03-06T01:17:55;1999.90;;;999.90;;
68995;SDS011;56056;48.990;12.146;2024-03-06T01:20:22;1999.90;;;999.90;;
68995;SDS011;56056;48.990;12.146;2024-03-06T01:22:48;1999.90;;;999.90;;
68995;SDS011;56056;48.990;12.146;2024-03-06T01:25:14;1999.90;;;999.90;;
68995;SDS011;56056;48.990;12.146;2024-03-06T01:27:41;1999.90;;;999.90;;
68995;SDS011;56056;48.990;12.146;2024-03-06T01:30:07;1999.90;;;999.90;;
68995;SDS011;56056;48.990;12.146;2024-03-06T01:32:34;1999.90;;;999.90;;
68995;SDS011;56056;48.990;12.146;2024-03-06T01:35:00;1999.90;;;999.90;;
68995;SDS011;56056;48.990;12.146;2024-03-06T01:37:26;1999.90;;;999.90;;
68995;SDS011;56056;48.990;12.146;2024-03-06T01:39:52;1999.90;;;999.90;;
68995;SDS011;56056;48.990;12.146;2024-03-06T01:42:18;1999.90;;;999.90;;
68995;SDS011;56056;48.990;12.146;2024-03-06T01:44:45;1999.90;;;999.90;;
68995;SDS011;56056;48.990;12.146;2024-03-06T01:47:11;1999.90;;;999.90;;
68995;SDS011;56056;48.990;12.146;2024-03-06T01:49:37;1999.90;;;999.90;;
68995;SDS011;56056;48.990;12.146;2024-03-06T01:52:03;1999.90;;;999.90;;
68995;SDS011;56056;48.990;12.146;2024-03-06T01:54:29;1999.90;;;999.90;;
68995;SDS011;56056;48.990;12.146;2024-03-06T01:56:56;1999.90;;;999.90;;
68995;SDS011;56056;48.990;12.146;2024-03-06T01:59:25;1999.90;;;999.90;;
68995;SDS011;56056;48.990;12.146;2024-03-06T02:01:53;1999.90;;;999.90;;
68995;SDS011;56056;48.990;12.146;2024-03-06T02:04:19;1999.90;;;999.90;;
68995;SDS011;56056;48.990;12.146;2024-03-06T02:06:45;1999.90;;;999.90;;
68995;SDS011;56056;48.990;12.146;2024-03-06T02:09:12;1999.90;;;999.90;;
68995;SDS011;56056;48.990;12.146;2024-03-06T02:11:41;1999.90;;;999.90;;
68995;SDS011;56056;48.990;12.146;2024-03-06T02:14:09;1999.90;;;999.90;;
68995;SDS011;56056;48.990;12.146;2024-03-06T02:16:36;1999.90;;;999.90;;
68995;SDS011;56056;48.990;12.146;2024-03-06T02:19:05;1999.90;;;999.90;;
68995;SDS011;56056;48.990;12.146;2024-03-06T02:21:32;1999.90;;;999.90;;
68995;SDS011;56056;48.990;12.146;2024-03-06T02:23:58;1999.90;;;999.90;;
68995;SDS011;56056;48.990;12.146;2024-03-06T02:26:24;1999.90;;;999.90;;
68995;SDS011;56056;48.990;12.146;2024-03-06T02:28:50;1999.90;;;999.90;;
68995;SDS011;56056;48.990;12.146;2024-03-06T02:31:17;1999.90;;;999.90;;
68995;SDS011;56056;48.990;12.146;2024-03-06T02:33:44;1999.90;;;999.90;;
68995;SDS011;56056;48.990;12.146;2024-03-06T02:36:12;1999.90;;;999.90;;
68995;SDS011;56056;48.990;12.146;2024-03-06T02:38:40;1999.90;;;999.90;;
68995;SDS011;56056;48.990;12.146;2024-03-06T02:41:06;1999.90;;;999.90;;
68995;SDS011;56056;48.990;12.146;2024-03-06T02:43:32;1999.90;;;999.90;;
68995;SDS011;56056;48.990;12.146;2024-03-06T02:45:58;1999.90;;;999.90;;
68995;SDS011;56056;48.990;12.146;2024-03-06T02:48:24;1999.90;;;999.90;;
68995;SDS011;56056;48.990;12.146;2024-03-06T02:50:50;1999.90;;;999.90;;
68995;SDS011;56056;48.990;12.146;2024-03-06T02:53:17;1999.90;;;999.90;;
68995;SDS011;56056;48.990;12.146;2024-03-06T02:55:44;1999.90;;;999.90;;
68995;SDS011;56056;48.990;12.146;2024-03-06T02:58:10;1999.90;;;999.90;;
68995;SDS011;56056;48.990;12.146;2024-03-06T03:00:36;1999.90;;;999.90;;
68995;SDS011;56056;48.990;12.146;2024-03-06T03:03:04;1999.90;;;999.90;;
68995;SDS011;56056;48.990;12.146;2024-03-06T03:05:30;1999.90;;;999.90;;
68995;SDS011;56056;48.990;12.146;2024-03-06T03:07:56;1999.90;;;999.90;;
68995;SDS011;56056;48.990;12.146;2024-03-06T03:10:21;1999.90;;;999.90;;
68995;SDS011;56056;48.990;12.146;2024-03-06T03:12:51;1999.90;;;999.90;;
68995;SDS011;56056;48.990;12.146;2024-03-06T03:15:17;1999.90;;;999.90;;
68995;SDS011;56056;48.990;12.146;2024-03-06T03:17:43;1999.90;;;999.90;;
68995;SDS011;56056;48.990;12.146;2024-03-06T03:20:09;1999.90;;;999.90;;
68995;SDS011;56056;48.990;12.146;2024-03-06T03:22:36;1999.90;;;999.90;;
68995;SDS011;56056;48.990;12.146;2024-03-06T03:25:03;1999.90;;;999.90;;
68995;SDS011;56056;48.990;12.146;2024-03-06T03:27:32;1999.90;;;999.90;;
68995;SDS011;56056;48.990;12.146;2024-03-06T03:29:59;1999.90;;;999.90;;
68995;SDS011;56056;48.990;12.146;2024-03-06T03:32:25;1999.90;;;999.90;;
68995;SDS011;56056;48.990;12.146;2024-03-06T03:34:51;1999.90;;;999.90;;
68995;SDS011;56056;48.990;12.146;2024-03-06T03:37:17;1999.90;;;999.90;;
68995;SDS011;56056;48.990;12.146;2024-03-06T03:39:43;1999.90;;;999.90;;
68995;SDS011;56056;48.990;12.146;2024-03-06T03:42:09;1999.90;;;999.90;;
68995;SDS011;56056;48.990;12.146;2024-03-06T03:44:35;1999.90;;;999.90;;
68995;SDS011;56056;48.990;12.146;2024-03-06T03:47:02;1999.90;;;999.90;;
68995;SDS011;56056;48.990;12.146;2024-03-06T03:49:28;1999.90;;;999.90;;
68995;SDS011;56056;48.990;12.146;2024-03-06T03:51:54;1999.90;;;999.90;;
68995;SDS011;56056;48.990;12.146;2024-03-06T03:54:20;1999.90;;;999.90;;
68995;SDS011;56056;48.990;12.146;2024-03-06T03:56:46;1999.90;;;999.90;;
68995;SDS011;56056;48.990;12.146;2024-03-06T03:59:13;1999.90;;;999.90;;
68995;SDS011;56056;48.990;12.146;2024-03-06T04:01:38;1999.90;;;999.90;;
68995;SDS011;56056;48.990;12.146;2024-03-06T04:04:06;1999.90;;;999.90;;
68995;SDS011;56056;48.990;12.146;2024-03-06T04:06:33;1999.90;;;999.90;;
68995;SDS011;56056;48.990;12.146;2024-03-06T04:08:59;1999.90;;;999.90;;
68995;SDS011;56056;48.990;12.146;2024-03-06T04:11:25;1999.90;;;999.90;;
68995;SDS011;56056;48.990;12.146;2024-03-06T04:13:51;1999.90;;;999.90;;
68995;SDS011;56056;48.990;12.146;2024-03-06T04:16:17;1999.90;;;999.90;;
68995;SDS011;56056;48.990;12.146;2024-03-06T04:18:43;1999.90;;;999.90;;
68995;SDS011;56056;48.990;12.146;2024-03-06T04:21:14;1999.90;;;999.90;;
68995;SDS011;56056;48.990;12.146;2024-03-06T04:23:40;1999.90;;;999.90;;
68995;SDS011;56056;48.990;12.146;2024-03-06T04:26:06;1999.90;;;999.90;;
68995;SDS011;56056;48.990;12.146;2024-03-06T04:28:32;1999.90;;;999.90;;
68995;SDS011;56056;48.990;12.146;2024-03-06T04:30:58;1999.90;;;999.90;;
68995;SDS011;56056;48.990;12.146;2024-03-06T04:33:24;1999.90;;;999.90;;
68995;SDS011;56056;48.990;12.146;2024-03-06T04:35:50;1999.90;;;999.90;;
68995;SDS011;56056;48.990;12.146;2024-03-06T04:38:18;1999.90;;;999.90;;
68995;SDS011;56056;48.990;12.146;2024-03-06T04:40:44;1999.90;;;999.90;;
68995;SDS011;56056;48.990;12.146;2024-03-06T04:43:10;1999.90;;;999.90;;
68995;SDS011;56056;48.990;12.146;2024-03-06T04:45:36;1999.90;;;999.90;;
68995;SDS011;56056;48.990;12.146;2024-03-06T04:48:02;1999.90;;;999.90;;
68995;SDS011;56056;48.990;12.146;2024-03-06T04:50:28;1999.90;;;965.17;;
68995;SDS011;56056;48.990;12.146;2024-03-06T04:52:54;1999.90;;;772.75;;
68995;SDS011;56056;48.990;12.146;2024-03-06T04:55:22;1883.45;;;610.10;;
68995;SDS011;56056;48.990;12.146;2024-03-06T04:57:50;1999.90;;;791.78;;
68995;SDS011;56056;48.990;12.146;2024-03-06T05:00:18;1999.90;;;745.63;;
68995;SDS011;56056;48.990;12.146;2024-03-06T05:02:44;1999.90;;;689.40;;
68995;SDS011;56056;48.990;12.146;2024-03-06T05:05:10;1999.90;;;887.20;;
68995;SDS011;56056;48.990;12.146;2024-03-06T05:07:36;1999.90;;;786.65;;
68995;SDS011;56056;48.990;12.146;2024-03-06T05:10:02;1999.90;;;828.08;;
68995;SDS011;56056;48.990;12.146;2024-03-06T05:12:30;1999.90;;;875.20;;
68995;SDS011;56056;48.990;12.146;2024-03-06T05:14:56;1999.90;;;869.97;;
68995;SDS011;56056;48.990;12.146;2024-03-06T05:17:22;1999.90;;;786.00;;
68995;SDS011;56056;48.990;12.146;2024-03-06T05:19:49;1999.90;;;735.65;;
68995;SDS011;56056;48.990;12.146;2024-03-06T05:22:15;1999.90;;;939.83;;
68995;SDS011;56056;48.990;12.146;2024-03-06T05:24:42;1999.90;;;854.83;;
68995;SDS011;56056;48.990;12.146;2024-03-06T05:27:09;1999.90;;;862.53;;
68995;SDS011;56056;48.990;12.146;2024-03-06T05:29:37;1999.90;;;928.38;;
68995;SDS011;56056;48.990;12.146;2024-03-06T05:32:03;1999.22;;;885.63;;
68995;SDS011;56056;48.990;12.146;2024-03-06T05:34:29;1999.90;;;953.67;;
68995;SDS011;56056;48.990;12.146;2024-03-06T05:36:55;1999.90;;;903.72;;
68995;SDS011;56056;48.990;12.146;2024-03-06T05:39:22;1999.90;;;866.58;;
68995;SDS011;56056;48.990;12.146;2024-03-06T05:41:48;1999.90;;;941.97;;
68995;SDS011;56056;48.990;12.146;2024-03-06T05:44:13;1999.90;;;762.60;;
68995;SDS011;56056;48.990;12.146;2024-03-06T05:46:41;1999.90;;;806.42;;
68995;SDS011;56056;48.990;12.146;2024-03-06T05:49:07;1961.82;;;659.72;;
68995;SDS011;56056;48.990;12.146;2024-03-06T05:51:32;1954.88;;;690.97;;
68995;SDS011;56056;48.990;12.146;2024-03-06T05:53:58;1847.65;;;809.97;;
68995;SDS011;56056;48.990;12.146;2024-03-06T05:56:24;1940.80;;;907.30;;
68995;SDS011;56056;48.990;12.146;2024-03-06T05:58:50;1918.95;;;896.00;;
68995;SDS011;56056;48.990;12.146;2024-03-06T06:01:16;1936.90;;;909.53;;
68995;SDS011;56056;48.990;12.146;2024-03-06T06:03:46;1754.53;;;756.53;;
68995;SDS011;56056;48.990;12.146;2024-03-06T06:06:14;1613.07;;;511.00;;
68995;SDS011;56056;48.990;12.146;2024-03-06T06:08:40;1999.90;;;999.90;;
68995;SDS011;56056;48.990;12.146;2024-03-06T06:11:06;1901.15;;;728.95;;
68995;SDS011;56056;48.990;12.146;2024-03-06T06:13:32;1854.40;;;699.17;;
68995;SDS011;56056;48.990;12.146;2024-03-06T06:15:58;1999.90;;;713.92;;
68995;SDS011;56056;48.990;12.146;2024-03-06T06:18:27;1952.00;;;867.58;;
68995;SDS011;56056;48.990;12.146;2024-03-06T06:20:54;1999.90;;;957.28;;
68995;SDS011;56056;48.990;12.146;2024-03-06T06:23:20;1999.90;;;962.78;;
68995;SDS011;56056;48.990;12.146;2024-03-06T06:25:46;1999.90;;;999.90;;
68995;SDS011;56056;48.990;12.146;2024-03-06T06:28:12;1999.90;;;999.90;;
68995;SDS011;56056;48.990;12.146;2024-03-06T06:30:38;1999.90;;;999.90;;
68995;SDS011;56056;48.990;12.146;2024-03-06T06:33:04;1999.90;;;999.90;;
68995;SDS011;56056;48.990;12.146;2024-03-06T06:35:30;1999.90;;;999.90;;
68995;SDS011;56056;48.990;12.146;2024-03-06T06:37:57;1999.90;;;999.90;;
68995;SDS011;56056;48.990;12.146;2024-03-06T06:40:23;1999.90;;;999.90;;
68995;SDS011;56056;48.990;12.146;2024-03-06T06:42:49;1999.90;;;999.90;;
68995;SDS011;56056;48.990;12.146;2024-03-06T06:45:15;1999.90;;;999.90;;
68995;SDS011;56056;48.990;12.146;2024-03-06T06:47:42;1999.90;;;999.90;;
68995;SDS011;56056;48.990;12.146;2024-03-06T06:50:08;1999.90;;;999.90;;
68995;SDS011;56056;48.990;12.146;2024-03-06T06:52:36;1999.90;;;999.90;;
68995;SDS011;56056;48.990;12.146;2024-03-06T06:55:03;1999.90;;;999.90;;
68995;SDS011;56056;48.990;12.146;2024-03-06T06:57:30;1999.90;;;999.90;;
68995;SDS011;56056;48.990;12.146;2024-03-06T06:59:57;1999.90;;;999.90;;
68995;SDS011;56056;48.990;12.146;2024-03-06T07:02:24;1999.90;;;999.90;;
68995;SDS011;56056;48.990;12.146;2024-03-06T07:04:49;1999.90;;;999.90;;
68995;SDS011;56056;48.990;12.146;2024-03-06T07:07:16;1999.90;;;999.90;;
68995;SDS011;56056;48.990;12.146;2024-03-06T07:09:42;1999.90;;;999.90;;
68995;SDS011;56056;48.990;12.146;2024-03-06T07:12:10;1999.90;;;999.90;;
68995;SDS011;56056;48.990;12.146;2024-03-06T07:14:36;1999.90;;;999.90;;
68995;SDS011;56056;48.990;12.146;2024-03-06T07:17:01;1999.90;;;999.90;;
68995;SDS011;56056;48.990;12.146;2024-03-06T07:19:28;1999.90;;;999.90;;
68995;SDS011;56056;48.990;12.146;2024-03-06T07:21:54;1999.90;;;999.90;;
68995;SDS011;56056;48.990;12.146;2024-03-06T07:24:20;1999.90;;;999.90;;
68995;SDS011;56056;48.990;12.146;2024-03-06T07:26:46;1999.90;;;999.90;;
68995;SDS011;56056;48.990;12.146;2024-03-06T07:29:13;1999.90;;;999.90;;
68995;SDS011;56056;48.990;12.146;2024-03-06T07:31:39;1999.90;;;999.90;;
68995;SDS011;56056;48.990;12.146;2024-03-06T07:34:06;1999.90;;;999.90;;
68995;SDS011;56056;48.990;12.146;2024-03-06T07:36:33;1999.90;;;999.90;;
68995;SDS011;56056;48.990;12.146;2024-03-06T07:39:00;1999.90;;;999.90;;
68995;SDS011;56056;48.990;12.146;2024-03-06T07:41:25;1798.90;;;999.90;;
68995;SDS011;56056;48.990;12.146;2024-03-06T07:43:51;1999.90;;;999.90;;
68995;SDS011;56056;48.990;12.146;2024-03-06T07:46:19;1999.90;;;999.90;;
68995;SDS011;56056;48.990;12.146;2024-03-06T07:48:45;1999.90;;;999.90;;
68995;SDS011;56056;48.990;12.146;2024-03-06T07:51:11;1999.90;;;999.90;;
68995;SDS011;56056;48.990;12.146;2024-03-06T07:53:36;1886.90;;;999.90;;
68995;SDS011;56056;48.990;12.146;2024-03-06T07:56:03;1759.43;;;999.90;;
68995;SDS011;56056;48.990;12.146;2024-03-06T07:58:29;1529.57;;;999.90;;
68995;SDS011;56056;48.990;12.146;2024-03-06T08:00:56;1170.88;;;999.90;;
68995;SDS011;56056;48.990;12.146;2024-03-06T08:03:23;1046.68;;;973.75;;
68995;SDS011;56056;48.990;12.146;2024-03-06T08:05:51;913.22;;;854.17;;
68995;SDS011;56056;48.990;12.146;2024-03-06T08:08:20;745.83;;;704.97;;
68995;SDS011;56056;48.990;12.146;2024-03-06T08:10:46;735.92;;;695.50;;
68995;SDS011;56056;48.990;12.146;2024-03-06T08:13:12;664.38;;;631.35;;
68995;SDS011;56056;48.990;12.146;2024-03-06T08:15:39;636.58;;;606.65;;
68995;SDS011;56056;48.990;12.146;2024-03-06T08:18:05;623.03;;;594.65;;
68995;SDS011;56056;48.990;12.146;2024-03-06T08:20:33;639.83;;;609.67;;
68995;SDS011;56056;48.990;12.146;2024-03-06T08:22:59;690.55;;;656.42;;
68995;SDS011;56056;48.990;12.146;2024-03-06T08:25:24;699.22;;;664.15;;
68995;SDS011;56056;48.990;12.146;2024-03-06T08:27:50;597.67;;;570.85;;
68995;SDS011;56056;48.990;12.146;2024-03-06T08:30:16;700.97;;;664.15;;
68995;SDS011;56056;48.990;12.146;2024-03-06T08:32:42;746.17;;;705.45;;
68995;SDS011;56056;48.990;12.146;2024-03-06T08:35:09;692.22;;;655.45;;
68995;SDS011;56056;48.990;12.146;2024-03-06T08:37:38;740.90;;;699.85;;
68995;SDS011;56056;48.990;12.146;2024-03-06T08:40:04;752.45;;;708.88;;
68995;SDS011;56056;48.990;12.146;2024-03-06T08:42:42;703.15;;;665.42;;
68995;SDS011;56056;48.990;12.146;2024-03-06T08:45:09;723.65;;;685.67;;
68995;SDS011;56056;48.990;12.146;2024-03-06T08:47:35;678.35;;;644.33;;
68995;SDS011;56056;48.990;12.146;2024-03-06T08:50:01;674.90;;;641.75;;
68995;SDS011;56056;48.990;12.146;2024-03-06T08:52:28;718.90;;;681.17;;
68995;SDS011;56056;48.990;12.146;2024-03-06T08:54:55;780.38;;;737.28;;
68995;SDS011;56056;48.990;12.146;2024-03-06T08:57:21;796.50;;;752.42;;
68995;SDS011;56056;48.990;12.146;2024-03-06T08:59:47;765.38;;;725.08;;
68995;SDS011;56056;48.990;12.146;2024-03-06T09:02:13;785.25;;;741.97;;
68995;SDS011;56056;48.990;12.146;2024-03-06T09:04:44;775.08;;;732.67;;
68995;SDS011;56056;48.990;12.146;2024-03-06T09:07:10;779.50;;;737.88;;
68995;SDS011;56056;48.990;12.146;2024-03-06T09:09:37;836.35;;;787.63;;
68995;SDS011;56056;48.990;12.146;2024-03-06T09:12:05;783.85;;;741.25;;
68995;SDS011;56056;48.990;12.146;2024-03-06T09:14:32;734.70;;;696.42;;
68995;SDS011;56056;48.990;12.146;2024-03-06T09:16:59;734.67;;;695.85;;
68995;SDS011;56056;48.990;12.146;2024-03-06T09:19:25;802.33;;;757.72;;
68995;SDS011;56056;48.990;12.146;2024-03-06T09:21:51;736.72;;;698.00;;
68995;SDS011;56056;48.990;12.146;2024-03-06T09:24:16;833.22;;;785.22;;
68995;SDS011;56056;48.990;12.146;2024-03-06T09:26:43;807.67;;;762.47;;
68995;SDS011;56056;48.990;12.146;2024-03-06T09:29:11;856.13;;;805.85;;
68995;SDS011;56056;48.990;12.146;2024-03-06T09:31:37;837.58;;;789.67;;
68995;SDS011;56056;48.990;12.146;2024-03-06T09:34:03;807.00;;;760.92;;
68995;SDS011;56056;48.990;12.146;2024-03-06T09:36:29;800.45;;;755.63;;
68995;SDS011;56056;48.990;12.146;2024-03-06T09:38:55;808.72;;;763.28;;
68995;SDS011;56056;48.990;12.146;2024-03-06T09:41:21;810.63;;;764.53;;
68995;SDS011;56056;48.990;12.146;2024-03-06T09:43:47;821.97;;;774.83;;
68995;SDS011;56056;48.990;12.146;2024-03-06T09:46:14;752.53;;;711.13;;
68995;SDS011;56056;48.990;12.146;2024-03-06T09:48:42;742.17;;;702.72;;
68995;SDS011;56056;48.990;12.146;2024-03-06T09:51:12;708.13;;;672.25;;
68995;SDS011;56056;48.990;12.146;2024-03-06T09:53:39;762.50;;;721.58;;
68995;SDS011;56056;48.990;12.146;2024-03-06T09:56:08;793.17;;;748.95;;
68995;SDS011;56056;48.990;12.146;2024-03-06T09:58:34;752.00;;;712.00;;
68995;SDS011;56056;48.990;12.146;2024-03-06T10:01:00;679.80;;;646.10;;
68995;SDS011;56056;48.990;12.146;2024-03-06T10:03:33;701.00;;;665.42;;
68995;SDS011;56056;48.990;12.146;2024-03-06T10:05:59;664.33;;;631.63;;
68995;SDS011;56056;48.990;12.146;2024-03-06T10:08:25;659.72;;;627.65;;
68995;SDS011;56056;48.990;12.146;2024-03-06T10:10:51;660.00;;;627.53;;
68995;SDS011;56056;48.990;12.146;2024-03-06T10:13:18;686.65;;;652.55;;
68995;SDS011;56056;48.990;12.146;2024-03-06T10:15:55;696.35;;;661.10;;
68995;SDS011;56056;48.990;12.146;2024-03-06T10:18:22;755.92;;;715.47;;
68995;SDS011;56056;48.990;12.146;2024-03-06T10:20:54;820.50;;;773.42;;
68995;SDS011;56056;48.990;12.146;2024-03-06T10:23:20;735.22;;;696.95;;
68995;SDS011;56056;48.990;12.146;2024-03-06T10:25:46;699.53;;;663.72;;
68995;SDS011;56056;48.990;12.146;2024-03-06T10:28:16;691.47;;;656.30;;
68995;SDS011;56056;48.990;12.146;2024-03-06T10:30:43;717.60;;;680.45;;
68995;SDS011;56056;48.990;12.146;2024-03-06T10:33:11;673.15;;;640.35;;
68995;SDS011;56056;48.990;12.146;2024-03-06T10:35:39;622.97;;;593.65;;
68995;SDS011;56056;48.990;12.146;2024-03-06T10:38:08;700.13;;;663.50;;
68995;SDS011;56056;48.990;12.146;2024-03-06T10:40:36;669.35;;;634.65;;
68995;SDS011;56056;48.990;12.146;2024-03-06T10:43:04;680.92;;;647.03;;
68995;SDS011;56056;48.990;12.146;2024-03-06T10:45:32;739.28;;;699.75;;
68995;SDS011;56056;48.990;12.146;2024-03-06T10:48:07;741.75;;;701.40;;
68995;SDS011;56056;48.990;12.146;2024-03-06T10:50:36;809.60;;;763.90;;
68995;SDS011;56056;48.990;12.146;2024-03-06T10:53:08;814.58;;;769.60;;
68995;SDS011;56056;48.990;12.146;2024-03-06T10:55:36;768.88;;;726.45;;
68995;SDS011;56056;48.990;12.146;2024-03-06T10:58:02;729.53;;;691.75;;
68995;SDS011;56056;48.990;12.146;2024-03-06T11:00:34;683.85;;;651.03;;
68995;SDS011;56056;48.990;12.146;2024-03-06T11:03:02;723.67;;;684.85;;
68995;SDS011;56056;48.990;12.146;2024-03-06T11:05:37;694.00;;;657.67;;
68995;SDS011;56056;48.990;12.146;2024-03-06T11:08:06;739.08;;;699.40;;
68995;SDS011;56056;48.990;12.146;2024-03-06T11:10:34;766.15;;;724.20;;
68995;SDS011;56056;48.990;12.146;2024-03-06T11:13:03;823.58;;;776.92;;
68995;SDS011;56056;48.990;12.146;2024-03-06T11:15:34;818.58;;;772.03;;
68995;SDS011;56056;48.990;12.146;2024-03-06T11:24:13;703.60;;;667.72;;
68995;SDS011;56056;48.990;12.146;2024-03-06T11:26:41;710.58;;;674.00;;
68995;SDS011;56056;48.990;12.146;2024-03-06T11:29:08;759.03;;;717.75;;
68995;SDS011;56056;48.990;12.146;2024-03-06T11:31:34;767.33;;;724.30;;
68995;SDS011;56056;48.990;12.146;2024-03-06T11:34:01;795.60;;;750.28;;
68995;SDS011;56056;48.990;12.146;2024-03-06T11:36:29;784.70;;;740.20;;
68995;SDS011;56056;48.990;12.146;2024-03-06T11:38:56;814.00;;;766.17;;
68995;SDS011;56056;48.990;12.146;2024-03-06T11:41:27;805.97;;;758.35;;
68995;SDS011;56056;48.990;12.146;2024-03-06T11:43:54;815.83;;;768.08;;
68995;SDS011;56056;48.990;12.146;2024-03-06T11:46:21;793.65;;;747.40;;
68995;SDS011;56056;48.990;12.146;2024-03-06T11:48:52;840.75;;;790.33;;
68995;SDS011;56056;48.990;12.146;2024-03-06T11:51:19;807.90;;;759.25;;
68995;SDS011;56056;48.990;12.146;2024-03-06T11:53:45;802.30;;;755.22;;
68995;SDS011;56056;48.990;12.146;2024-03-06T11:56:14;812.25;;;764.30;;
68995;SDS011;56056;48.990;12.146;2024-03-06T11:58:42;790.92;;;745.63;;
68995;SDS011;56056;48.990;12.146;2024-03-06T12:01:08;777.40;;;734.60;;
68995;SDS011;56056;48.990;12.146;2024-03-06T12:03:34;756.10;;;714.25;;
68995;SDS011;56056;48.990;12.146;2024-03-06T12:06:00;772.08;;;728.88;;
68995;SDS011;56056;48.990;12.146;2024-03-06T12:08:27;726.22;;;688.92;;
68995;SDS011;56056;48.990;12.146;2024-03-06T12:10:53;705.58;;;669.35;;
68995;SDS011;56056;48.990;12.146;2024-03-06T12:13:23;706.95;;;671.05;;
68995;SDS011;56056;48.990;12.146;2024-03-06T12:15:51;696.17;;;661.10;;
68995;SDS011;56056;48.990;12.146;2024-03-06T12:18:17;714.40;;;677.17;;
68995;SDS011;56056;48.990;12.146;2024-03-06T12:20:43;691.28;;;656.15;;
68995;SDS011;56056;48.990;12.146;2024-03-06T12:23:18;663.80;;;632.20;;
68995;SDS011;56056;48.990;12.146;2024-03-06T12:25:48;783.47;;;740.97;;
68995;SDS011;56056;48.990;12.146;2024-03-06T12:28:14;763.55;;;722.95;;
68995;SDS011;56056;48.990;12.146;2024-03-06T12:30:40;735.08;;;697.33;;
68995;SDS011;56056;48.990;12.146;2024-03-06T12:33:10;754.92;;;715.47;;
68995;SDS011;56056;48.990;12.146;2024-03-06T12:35:41;817.75;;;770.78;;
68995;SDS011;56056;48.990;12.146;2024-03-06T12:38:13;780.95;;;738.10;;
68995;SDS011;56056;48.990;12.146;2024-03-06T12:40:40;792.38;;;749.20;;
68995;SDS011;56056;48.990;12.146;2024-03-06T12:43:06;794.50;;;751.45;;
68995;SDS011;56056;48.990;12.146;2024-03-06T12:45:33;720.08;;;682.60;;
68995;SDS011;56056;48.990;12.146;2024-03-06T12:47:59;807.95;;;761.97;;
68995;SDS011;56056;48.990;12.146;2024-03-06T12:50:27;752.10;;;711.15;;
68995;SDS011;56056;48.990;12.146;2024-03-06T12:52:53;677.70;;;644.50;;
68995;SDS011;56056;48.990;12.146;2024-03-06T12:55:19;839.78;;;793.70;;
68995;SDS011;56056;48.990;12.146;2024-03-06T12:57:45;840.55;;;793.53;;
68995;SDS011;56056;48.990;12.146;2024-03-06T13:00:11;716.47;;;679.55;;
68995;SDS011;56056;48.990;12.146;2024-03-06T13:02:41;837.42;;;792.88;;
68995;SDS011;56056;48.990;12.146;2024-03-06T13:05:07;885.33;;;836.55;;
68995;SDS011;56056;48.990;12.146;2024-03-06T13:07:34;857.25;;;810.53;;
68995;SDS011;56056;48.990;12.146;2024-03-06T13:10:01;834.90;;;790.42;;
68995;SDS011;56056;48.990;12.146;2024-03-06T13:12:27;837.75;;;793.00;;
68995;SDS011;56056;48.990;12.146;2024-03-06T13:14:53;824.60;;;779.63;;
68995;SDS011;56056;48.990;12.146;2024-03-06T13:17:19;895.22;;;845.42;;
68995;SDS011;56056;48.990;12.146;2024-03-06T13:19:45;832.53;;;786.83;;
68995;SDS011;56056;48.990;12.146;2024-03-06T13:22:11;843.15;;;794.90;;
68995;SDS011;56056;48.990;12.146;2024-03-06T13:24:38;824.97;;;778.17;;
68995;SDS011;56056;48.990;12.146;2024-03-06T13:27:04;826.55;;;779.13;;
68995;SDS011;56056;48.990;12.146;2024-03-06T13:29:30;840.03;;;791.13;;
68995;SDS011;56056;48.990;12.146;2024-03-06T13:31:56;863.65;;;812.40;;
68995;SDS011;56056;48.990;12.146;2024-03-06T13:34:22;814.05;;;767.65;;
68995;SDS011;56056;48.990;12.146;2024-03-06T13:36:48;817.42;;;770.47;;
68995;SDS011;56056;48.990;12.146;2024-03-06T13:39:14;832.63;;;785.17;;
68995;SDS011;56056;48.990;12.146;2024-03-06T13:41:41;798.70;;;754.08;;
68995;SDS011;56056;48.990;12.146;2024-03-06T13:44:07;766.67;;;725.83;;